sensor_id;sensor_type;location;lat;lon;timestamp;pressure;altitude;pressure_sealevel;temperature;humidity
19676;BME280;39539;52.202;9.876;2022-07-17T00:00:18;101990.66;;;12.05;92.62
19676;BME280;39539;52.202;9.876;2022-07-17T00:02:44;101998.41;;;12.00;92.27
19676;BME280;39539;52.202;9.876;2022-07-17T00:05:09;102005.53;;;12.00;92.35
19676;BME280;39539;52.202;9.876;2022-07-17T00:07:35;102005.09;;;11.96;92.63
19676;BME280;39539;52.202;9.876;2022-07-17T00:10:01;102002.72;;;11.86;93.58
19676;BME280;39539;52.202;9.876;2022-07-17T00:12:26;101998.28;;;11.94;93.42
19676;BME280;39539;52.202;9.876;2022-07-17T00:14:52;101986.34;;;11.89;92.91
19676;BME280;39539;52.202;9.876;2022-07-17T00:17:18;101979.59;;;11.79;93.22
19676;BME280;39539;52.202;9.876;2022-07-17T00:19:44;101984.72;;;11.80;94.23
19676;BME280;39539;52.202;9.876;2022-07-17T00:22:09;101977.97;;;11.78;94.19
19676;BME280;39539;52.202;9.876;2022-07-17T00:24:35;101985.84;;;11.71;94.34
19676;BME280;39539;52.202;9.876;2022-07-17T00:27:01;101988.41;;;11.79;95.49
19676;BME280;39539;52.202;9.876;2022-07-17T00:29:27;101972.88;;;11.68;95.46
19676;BME280;39539;52.202;9.876;2022-07-17T00:31:53;101978.66;;;11.72;95.38
19676;BME280;39539;52.202;9.876;2022-07-17T00:34:19;101970.06;;;11.69;95.72
19676;BME280;39539;52.202;9.876;2022-07-17T00:36:45;101983.38;;;11.69;95.99
19676;BME280;39539;52.202;9.876;2022-07-17T00:39:10;101982.63;;;11.76;95.86
19676;BME280;39539;52.202;9.876;2022-07-17T00:41:35;101975.19;;;11.71;95.78
19676;BME280;39539;52.202;9.876;2022-07-17T00:44:08;101973.34;;;11.72;95.86
19676;BME280;39539;52.202;9.876;2022-07-17T00:46:34;101986.78;;;11.78;96.12
19676;BME280;39539;52.202;9.876;2022-07-17T00:49:01;101975.00;;;11.73;96.55
19676;BME280;39539;52.202;9.876;2022-07-17T00:51:26;101987.69;;;11.71;96.65
19676;BME280;39539;52.202;9.876;2022-07-17T00:53:52;101991.72;;;11.66;93.67
19676;BME280;39539;52.202;9.876;2022-07-17T00:56:20;101978.25;;;11.45;92.60
19676;BME280;39539;52.202;9.876;2022-07-17T00:58:48;101968.69;;;11.36;91.41
19676;BME280;39539;52.202;9.876;2022-07-17T01:01:14;101965.28;;;11.27;91.77
19676;BME280;39539;52.202;9.876;2022-07-17T01:03:40;101977.75;;;11.04;91.30
19676;BME280;39539;52.202;9.876;2022-07-17T01:06:06;101963.06;;;10.93;91.93
19676;BME280;39539;52.202;9.876;2022-07-17T01:08:32;101976.97;;;10.95;94.67
19676;BME280;39539;52.202;9.876;2022-07-17T01:10:57;101957.59;;;10.86;97.03
19676;BME280;39539;52.202;9.876;2022-07-17T01:13:24;101976.94;;;11.03;98.82
19676;BME280;39539;52.202;9.876;2022-07-17T01:15:50;101986.91;;;11.01;99.43
19676;BME280;39539;52.202;9.876;2022-07-17T01:18:15;101995.69;;;11.10;99.56
19676;BME280;39539;52.202;9.876;2022-07-17T01:20:44;101979.28;;;10.98;97.60
19676;BME280;39539;52.202;9.876;2022-07-17T01:23:10;101992.22;;;11.01;96.01
19676;BME280;39539;52.202;9.876;2022-07-17T01:25:37;101987.00;;;10.93;94.71
19676;BME280;39539;52.202;9.876;2022-07-17T01:28:03;101989.03;;;10.83;94.51
19676;BME280;39539;52.202;9.876;2022-07-17T01:30:29;101985.72;;;10.81;95.55
19676;BME280;39539;52.202;9.876;2022-07-17T01:32:54;101981.81;;;10.68;96.86
19676;BME280;39539;52.202;9.876;2022-07-17T01:35:21;101986.66;;;10.65;97.16
19676;BME280;39539;52.202;9.876;2022-07-17T01:37:47;101976.22;;;10.55;98.59
19676;BME280;39539;52.202;9.876;2022-07-17T01:40:14;101966.53;;;10.39;100.00
19676;BME280;39539;52.202;9.876;2022-07-17T01:42:42;101983.22;;;10.56;100.00
19676;BME280;39539;52.202;9.876;2022-07-17T01:45:09;102000.94;;;10.64;100.00
19676;BME280;39539;52.202;9.876;2022-07-17T01:47:34;101984.50;;;10.60;100.00
19676;BME280;39539;52.202;9.876;2022-07-17T01:50:01;101985.81;;;10.64;100.00
19676;BME280;39539;52.202;9.876;2022-07-17T01:52:27;101991.13;;;10.64;100.00
19676;BME280;39539;52.202;9.876;2022-07-17T01:54:53;101980.38;;;10.57;100.00
19676;BME280;39539;52.202;9.876;2022-07-17T01:57:19;101978.72;;;10.56;100.00
19676;BME280;39539;52.202;9.876;2022-07-17T01:59:45;101982.44;;;10.47;100.00
19676;BME280;39539;52.202;9.876;2022-07-17T02:02:12;101995.38;;;10.50;100.00
19676;BME280;39539;52.202;9.876;2022-07-17T02:04:38;101993.69;;;10.49;100.00
19676;BME280;39539;52.202;9.876;2022-07-17T02:07:07;101981.63;;;10.39;100.00
19676;BME280;39539;52.202;9.876;2022-07-17T02:09:33;101994.75;;;10.40;99.36
19676;BME280;39539;52.202;9.876;2022-07-17T02:11:58;101997.94;;;10.27;98.40
19676;BME280;39539;52.202;9.876;2022-07-17T02:14:24;101996.97;;;10.12;99.36
19676;BME280;39539;52.202;9.876;2022-07-17T02:16:49;102000.34;;;9.98;99.34
19676;BME280;39539;52.202;9.876;2022-07-17T02:19:15;101999.41;;;9.74;99.97
19676;BME280;39539;52.202;9.876;2022-07-17T02:21:40;102006.03;;;9.70;100.00
19676;BME280;39539;52.202;9.876;2022-07-17T02:24:06;101995.75;;;9.59;100.00
19676;BME280;39539;52.202;9.876;2022-07-17T02:26:32;102002.06;;;9.50;100.00
19676;BME280;39539;52.202;9.876;2022-07-17T02:28:57;101999.06;;;9.44;100.00
19676;BME280;39539;52.202;9.876;2022-07-17T02:31:23;101993.78;;;9.36;100.00
19676;BME280;39539;52.202;9.876;2022-07-17T02:33:48;101973.53;;;9.19;100.00
19676;BME280;39539;52.202;9.876;2022-07-17T02:36:13;102003.41;;;9.37;100.00
19676;BME280;39539;52.202;9.876;2022-07-17T02:38:39;102004.38;;;9.44;100.00
19676;BME280;39539;52.202;9.876;2022-07-17T02:41:04;101988.66;;;9.35;100.00
19676;BME280;39539;52.202;9.876;2022-07-17T02:43:30;101989.47;;;9.35;100.00
19676;BME280;39539;52.202;9.876;2022-07-17T02:45:55;101991.94;;;9.37;100.00
19676;BME280;39539;52.202;9.876;2022-07-17T02:48:21;101997.75;;;9.40;100.00
19676;BME280;39539;52.202;9.876;2022-07-17T02:50:46;102004.38;;;9.44;100.00
19676;BME280;39539;52.202;9.876;2022-07-17T02:53:11;101998.44;;;9.34;100.00
19676;BME280;39539;52.202;9.876;2022-07-17T02:55:37;102004.03;;;9.31;100.00
19676;BME280;39539;52.202;9.876;2022-07-17T02:58:02;102007.38;;;9.25;100.00
19676;BME280;39539;52.202;9.876;2022-07-17T03:00:28;101999.72;;;9.14;100.00
19676;BME280;39539;52.202;9.876;2022-07-17T03:02:53;102018.97;;;9.24;100.00
19676;BME280;39539;52.202;9.876;2022-07-17T03:05:20;102002.03;;;9.17;100.00
19676;BME280;39539;52.202;9.876;2022-07-17T03:07:46;101993.25;;;9.08;100.00
19676;BME280;39539;52.202;9.876;2022-07-17T03:10:12;102024.63;;;9.21;100.00
19676;BME280;39539;52.202;9.876;2022-07-17T03:12:37;102004.88;;;9.15;100.00
19676;BME280;39539;52.202;9.876;2022-07-17T03:15:04;102024.28;;;9.24;100.00
19676;BME280;39539;52.202;9.876;2022-07-17T03:17:30;102023.28;;;9.25;100.00
19676;BME280;39539;52.202;9.876;2022-07-17T03:19:56;102022.63;;;9.23;100.00
19676;BME280;39539;52.202;9.876;2022-07-17T03:22:21;102039.06;;;9.27;100.00
19676;BME280;39539;52.202;9.876;2022-07-17T03:24:47;102038.69;;;9.21;100.00
19676;BME280;39539;52.202;9.876;2022-07-17T03:27:12;102023.94;;;9.11;100.00
19676;BME280;39539;52.202;9.876;2022-07-17T03:29:37;102041.69;;;9.18;100.00
19676;BME280;39539;52.202;9.876;2022-07-17T03:32:03;102028.28;;;9.20;100.00
19676;BME280;39539;52.202;9.876;2022-07-17T03:34:28;102032.22;;;9.16;100.00
19676;BME280;39539;52.202;9.876;2022-07-17T03:36:54;102045.19;;;9.27;100.00
19676;BME280;39539;52.202;9.876;2022-07-17T03:39:19;102043.84;;;9.23;100.00
19676;BME280;39539;52.202;9.876;2022-07-17T03:41:44;102051.97;;;9.30;100.00
19676;BME280;39539;52.202;9.876;2022-07-17T03:44:10;102055.94;;;9.34;100.00
19676;BME280;39539;52.202;9.876;2022-07-17T03:46:35;102057.09;;;9.31;100.00
19676;BME280;39539;52.202;9.876;2022-07-17T03:49:01;102042.88;;;9.32;100.00
19676;BME280;39539;52.202;9.876;2022-07-17T03:51:27;102047.84;;;9.35;100.00
19676;BME280;39539;52.202;9.876;2022-07-17T03:53:52;102051.81;;;9.39;100.00
19676;BME280;39539;52.202;9.876;2022-07-17T03:56:18;102060.78;;;9.38;100.00
19676;BME280;39539;52.202;9.876;2022-07-17T03:58:43;102072.06;;;9.49;100.00
19676;BME280;39539;52.202;9.876;2022-07-17T04:01:08;102076.38;;;9.50;100.00
19676;BME280;39539;52.202;9.876;2022-07-17T04:03:34;102077.56;;;9.55;100.00
19676;BME280;39539;52.202;9.876;2022-07-17T04:05:59;102064.75;;;9.59;100.00
19676;BME280;39539;52.202;9.876;2022-07-17T04:08:25;102076.88;;;9.70;100.00
19676;BME280;39539;52.202;9.876;2022-07-17T04:10:51;102078.38;;;9.80;100.00
19676;BME280;39539;52.202;9.876;2022-07-17T04:13:17;102072.41;;;9.86;100.00
19676;BME280;39539;52.202;9.876;2022-07-17T04:15:43;102080.84;;;9.98;100.00
19676;BME280;39539;52.202;9.876;2022-07-17T04:18:14;102064.41;;;10.03;100.00
19676;BME280;39539;52.202;9.876;2022-07-17T04:20:39;102091.59;;;10.38;100.00
19676;BME280;39539;52.202;9.876;2022-07-17T04:23:05;102067.00;;;10.44;100.00
19676;BME280;39539;52.202;9.876;2022-07-17T04:25:31;102088.66;;;10.72;100.00
19676;BME280;39539;52.202;9.876;2022-07-17T04:27:56;102075.38;;;10.72;100.00
19676;BME280;39539;52.202;9.876;2022-07-17T04:30:22;102075.25;;;10.96;100.00
19676;BME280;39539;52.202;9.876;2022-07-17T04:32:48;102076.41;;;11.02;100.00
19676;BME280;39539;52.202;9.876;2022-07-17T04:35:13;102046.09;;;11.03;100.00
19676;BME280;39539;52.202;9.876;2022-07-17T04:37:39;102047.97;;;11.26;100.00
19676;BME280;39539;52.202;9.876;2022-07-17T04:40:05;102039.81;;;11.27;100.00
19676;BME280;39539;52.202;9.876;2022-07-17T04:42:31;102044.31;;;11.50;100.00
19676;BME280;39539;52.202;9.876;2022-07-17T04:44:56;102048.47;;;11.67;99.82
19676;BME280;39539;52.202;9.876;2022-07-17T04:47:22;102039.84;;;11.80;100.00
19676;BME280;39539;52.202;9.876;2022-07-17T04:49:47;102011.03;;;11.83;100.00
19676;BME280;39539;52.202;9.876;2022-07-17T04:52:12;102038.84;;;12.19;100.00
19676;BME280;39539;52.202;9.876;2022-07-17T04:54:38;102047.03;;;12.32;98.91
19676;BME280;39539;52.202;9.876;2022-07-17T04:57:03;102063.19;;;12.60;98.28
19676;BME280;39539;52.202;9.876;2022-07-17T04:59:28;102065.84;;;12.75;97.92
19676;BME280;39539;52.202;9.876;2022-07-17T05:01:54;102063.84;;;12.98;97.27
19676;BME280;39539;52.202;9.876;2022-07-17T05:04:19;102074.16;;;13.38;96.04
19676;BME280;39539;52.202;9.876;2022-07-17T05:06:46;102098.97;;;14.03;91.89
19676;BME280;39539;52.202;9.876;2022-07-17T05:09:12;102102.59;;;14.23;90.12
19676;BME280;39539;52.202;9.876;2022-07-17T05:11:37;102110.63;;;14.23;88.30
19676;BME280;39539;52.202;9.876;2022-07-17T05:14:03;102080.81;;;13.98;87.61
19676;BME280;39539;52.202;9.876;2022-07-17T05:16:28;102075.19;;;13.86;88.72
19676;BME280;39539;52.202;9.876;2022-07-17T05:18:53;102077.00;;;13.79;89.45
19676;BME280;39539;52.202;9.876;2022-07-17T05:21:19;102077.13;;;13.71;90.78
19676;BME280;39539;52.202;9.876;2022-07-17T05:23:44;102066.50;;;13.78;92.07
19676;BME280;39539;52.202;9.876;2022-07-17T05:26:11;102064.06;;;13.83;93.03
19676;BME280;39539;52.202;9.876;2022-07-17T05:28:37;102067.63;;;13.90;92.80
19676;BME280;39539;52.202;9.876;2022-07-17T05:31:02;102070.09;;;13.91;93.01
19676;BME280;39539;52.202;9.876;2022-07-17T05:33:27;102046.03;;;13.91;92.54
19676;BME280;39539;52.202;9.876;2022-07-17T05:35:53;102047.78;;;14.06;91.51
19676;BME280;39539;52.202;9.876;2022-07-17T05:38:20;102041.72;;;14.25;90.95
19676;BME280;39539;52.202;9.876;2022-07-17T05:40:45;102050.66;;;14.46;91.37
19676;BME280;39539;52.202;9.876;2022-07-17T05:43:10;102046.91;;;14.68;90.46
19676;BME280;39539;52.202;9.876;2022-07-17T05:45:36;102048.59;;;14.76;89.40
19676;BME280;39539;52.202;9.876;2022-07-17T05:48:02;102052.28;;;14.75;89.15
19676;BME280;39539;52.202;9.876;2022-07-17T05:50:28;102063.25;;;15.00;88.71
19676;BME280;39539;52.202;9.876;2022-07-17T05:52:53;102054.44;;;15.19;87.79
19676;BME280;39539;52.202;9.876;2022-07-17T05:55:19;102047.06;;;15.35;86.35
19676;BME280;39539;52.202;9.876;2022-07-17T05:57:44;102046.28;;;15.54;85.43
19676;BME280;39539;52.202;9.876;2022-07-17T06:00:10;102037.41;;;15.80;84.53
19676;BME280;39539;52.202;9.876;2022-07-17T06:02:36;102039.03;;;16.01;83.34
19676;BME280;39539;52.202;9.876;2022-07-17T06:05:01;102035.88;;;16.31;82.40
19676;BME280;39539;52.202;9.876;2022-07-17T06:07:27;102044.00;;;16.63;81.47
19676;BME280;39539;52.202;9.876;2022-07-17T06:09:52;102041.22;;;16.89;79.68
19676;BME280;39539;52.202;9.876;2022-07-17T06:12:17;102033.91;;;17.03;78.60
19676;BME280;39539;52.202;9.876;2022-07-17T06:14:43;102039.16;;;17.23;77.16
19676;BME280;39539;52.202;9.876;2022-07-17T06:17:08;102042.84;;;17.28;76.69
19676;BME280;39539;52.202;9.876;2022-07-17T06:19:33;102056.22;;;17.35;75.96
19676;BME280;39539;52.202;9.876;2022-07-17T06:21:59;102033.88;;;17.41;76.28
19676;BME280;39539;52.202;9.876;2022-07-17T06:24:24;102021.34;;;17.28;75.89
19676;BME280;39539;52.202;9.876;2022-07-17T06:26:50;102044.50;;;17.55;74.58
19676;BME280;39539;52.202;9.876;2022-07-17T06:29:16;102036.59;;;17.60;74.07
19676;BME280;39539;52.202;9.876;2022-07-17T06:31:41;102043.88;;;18.03;72.95
19676;BME280;39539;52.202;9.876;2022-07-17T06:34:06;102044.19;;;18.31;71.72
19676;BME280;39539;52.202;9.876;2022-07-17T06:36:32;102052.56;;;18.42;69.73
19676;BME280;39539;52.202;9.876;2022-07-17T06:38:57;102052.44;;;20.28;66.21
19676;BME280;39539;52.202;9.876;2022-07-17T06:41:22;102042.94;;;24.55;54.07
19676;BME280;39539;52.202;9.876;2022-07-17T06:43:48;102016.53;;;27.03;46.40
19676;BME280;39539;52.202;9.876;2022-07-17T06:46:13;101988.09;;;27.09;44.61
19676;BME280;39539;52.202;9.876;2022-07-17T06:48:38;101978.84;;;27.92;43.37
19676;BME280;39539;52.202;9.876;2022-07-17T06:51:04;101968.13;;;29.70;39.94
19676;BME280;39539;52.202;9.876;2022-07-17T06:53:29;101957.78;;;31.92;37.44
19676;BME280;39539;52.202;9.876;2022-07-17T06:55:55;101939.38;;;33.35;36.30
19676;BME280;39539;52.202;9.876;2022-07-17T06:58:20;101936.69;;;33.56;34.87
19676;BME280;39539;52.202;9.876;2022-07-17T07:00:46;101947.75;;;33.77;33.68
19676;BME280;39539;52.202;9.876;2022-07-17T07:03:11;101930.47;;;33.68;33.32
19676;BME280;39539;52.202;9.876;2022-07-17T07:05:36;101929.09;;;34.25;32.12
19676;BME280;39539;52.202;9.876;2022-07-17T07:08:02;101945.31;;;34.05;32.63
19676;BME280;39539;52.202;9.876;2022-07-17T07:10:28;101949.09;;;34.01;32.65
19676;BME280;39539;52.202;9.876;2022-07-17T07:12:53;101953.47;;;32.60;34.11
19676;BME280;39539;52.202;9.876;2022-07-17T07:15:18;101929.00;;;32.76;34.46
19676;BME280;39539;52.202;9.876;2022-07-17T07:17:44;101928.03;;;33.28;32.99
19676;BME280;39539;52.202;9.876;2022-07-17T07:20:10;101937.94;;;35.05;31.31
19676;BME280;39539;52.202;9.876;2022-07-17T07:22:36;101931.16;;;35.40;30.19
19676;BME280;39539;52.202;9.876;2022-07-17T07:25:02;101915.19;;;34.54;30.95
19676;BME280;39539;52.202;9.876;2022-07-17T07:27:28;101932.13;;;33.51;32.34
19676;BME280;39539;52.202;9.876;2022-07-17T07:29:53;101921.59;;;32.51;33.24
19676;BME280;39539;52.202;9.876;2022-07-17T07:32:18;101896.97;;;32.11;33.71
19676;BME280;39539;52.202;9.876;2022-07-17T07:34:44;101906.25;;;33.05;32.32
19676;BME280;39539;52.202;9.876;2022-07-17T07:37:09;101895.88;;;33.91;30.80
19676;BME280;39539;52.202;9.876;2022-07-17T07:39:34;101901.53;;;35.52;29.38
19676;BME280;39539;52.202;9.876;2022-07-17T07:42:00;101884.75;;;36.54;28.78
19676;BME280;39539;52.202;9.876;2022-07-17T07:44:25;101888.75;;;37.87;27.63
19676;BME280;39539;52.202;9.876;2022-07-17T07:46:51;101887.53;;;38.66;26.09
19676;BME280;39539;52.202;9.876;2022-07-17T07:49:16;101899.13;;;39.71;26.17
19676;BME280;39539;52.202;9.876;2022-07-17T07:51:42;101889.09;;;39.93;25.47
19676;BME280;39539;52.202;9.876;2022-07-17T07:54:08;101898.38;;;38.71;25.91
19676;BME280;39539;52.202;9.876;2022-07-17T07:56:33;101891.88;;;39.63;26.13
19676;BME280;39539;52.202;9.876;2022-07-17T07:59:00;101895.59;;;39.74;24.73
19676;BME280;39539;52.202;9.876;2022-07-17T08:01:25;101888.63;;;39.57;25.25
19676;BME280;39539;52.202;9.876;2022-07-17T08:03:51;101881.88;;;37.62;26.47
19676;BME280;39539;52.202;9.876;2022-07-17T08:06:16;101877.81;;;36.60;28.09
19676;BME280;39539;52.202;9.876;2022-07-17T08:08:41;101872.13;;;34.99;29.23
19676;BME280;39539;52.202;9.876;2022-07-17T08:11:07;101875.28;;;33.08;30.84
19676;BME280;39539;52.202;9.876;2022-07-17T08:13:33;101897.75;;;33.58;31.81
19676;BME280;39539;52.202;9.876;2022-07-17T08:15:59;101902.47;;;36.66;28.38
19676;BME280;39539;52.202;9.876;2022-07-17T08:18:25;101897.25;;;37.59;26.51
19676;BME280;39539;52.202;9.876;2022-07-17T08:20:52;101885.00;;;35.93;28.17
19676;BME280;39539;52.202;9.876;2022-07-17T08:23:17;101887.56;;;34.21;29.34
19676;BME280;39539;52.202;9.876;2022-07-17T08:25:42;101881.38;;;31.71;31.89
19676;BME280;39539;52.202;9.876;2022-07-17T08:28:09;101888.69;;;30.29;34.43
19676;BME280;39539;52.202;9.876;2022-07-17T08:30:35;101882.22;;;30.70;34.43
19676;BME280;39539;52.202;9.876;2022-07-17T08:33:06;101901.28;;;31.86;33.13
19676;BME280;39539;52.202;9.876;2022-07-17T08:35:33;101911.47;;;32.90;31.84
19676;BME280;39539;52.202;9.876;2022-07-17T08:38:00;101881.44;;;30.24;34.06
19676;BME280;39539;52.202;9.876;2022-07-17T08:40:27;101910.88;;;30.55;34.39
19676;BME280;39539;52.202;9.876;2022-07-17T08:42:57;101908.22;;;30.27;35.11
19676;BME280;39539;52.202;9.876;2022-07-17T08:45:24;101922.09;;;33.56;31.66
19676;BME280;39539;52.202;9.876;2022-07-17T08:47:50;101906.00;;;36.78;28.62
19676;BME280;39539;52.202;9.876;2022-07-17T08:50:21;101904.78;;;38.75;26.38
19676;BME280;39539;52.202;9.876;2022-07-17T08:52:47;101894.50;;;37.94;26.29
19676;BME280;39539;52.202;9.876;2022-07-17T08:55:13;101897.47;;;39.36;25.57
19676;BME280;39539;52.202;9.876;2022-07-17T08:57:40;101903.06;;;38.67;25.14
19676;BME280;39539;52.202;9.876;2022-07-17T09:00:08;101916.56;;;37.04;26.31
19676;BME280;39539;52.202;9.876;2022-07-17T09:02:36;101907.69;;;36.39;27.44
19676;BME280;39539;52.202;9.876;2022-07-17T09:05:03;101903.31;;;35.97;27.27
19676;BME280;39539;52.202;9.876;2022-07-17T09:07:45;101896.72;;;36.02;27.25
19676;BME280;39539;52.202;9.876;2022-07-17T09:10:11;101906.13;;;36.26;27.77
19676;BME280;39539;52.202;9.876;2022-07-17T09:12:37;101918.03;;;38.20;26.26
19676;BME280;39539;52.202;9.876;2022-07-17T09:15:14;101903.91;;;36.91;25.68
19676;BME280;39539;52.202;9.876;2022-07-17T09:17:54;101892.63;;;34.98;28.46
19676;BME280;39539;52.202;9.876;2022-07-17T09:20:20;101879.09;;;35.94;27.32
19676;BME280;39539;52.202;9.876;2022-07-17T09:23:03;101889.19;;;36.87;26.78
19676;BME280;39539;52.202;9.876;2022-07-17T09:25:49;101894.44;;;36.32;27.37
19676;BME280;39539;52.202;9.876;2022-07-17T09:28:16;101900.81;;;37.08;26.39
19676;BME280;39539;52.202;9.876;2022-07-17T09:30:44;101875.44;;;36.47;25.44
19676;BME280;39539;52.202;9.876;2022-07-17T09:33:18;101883.69;;;35.62;27.25
19676;BME280;39539;52.202;9.876;2022-07-17T09:35:55;101883.97;;;36.26;27.93
19676;BME280;39539;52.202;9.876;2022-07-17T09:38:28;101897.00;;;38.00;27.45
19676;BME280;39539;52.202;9.876;2022-07-17T09:41:09;101903.75;;;39.06;26.06
19676;BME280;39539;52.202;9.876;2022-07-17T09:46:21;101886.94;;;39.79;24.25
19676;BME280;39539;52.202;9.876;2022-07-17T09:48:52;101880.19;;;38.54;25.14
19676;BME280;39539;52.202;9.876;2022-07-17T09:51:29;101891.69;;;38.33;26.15
19676;BME280;39539;52.202;9.876;2022-07-17T09:53:58;101899.06;;;37.87;26.10
19676;BME280;39539;52.202;9.876;2022-07-17T09:56:29;101894.50;;;37.59;26.64
19676;BME280;39539;52.202;9.876;2022-07-17T09:59:00;101890.44;;;37.21;26.50
19676;BME280;39539;52.202;9.876;2022-07-17T10:01:26;101894.91;;;38.16;26.43
19676;BME280;39539;52.202;9.876;2022-07-17T10:03:52;101885.25;;;38.29;26.36
19676;BME280;39539;52.202;9.876;2022-07-17T10:06:19;101879.75;;;37.55;26.46
19676;BME280;39539;52.202;9.876;2022-07-17T10:08:46;101870.78;;;35.29;28.12
19676;BME280;39539;52.202;9.876;2022-07-17T10:11:12;101887.06;;;35.96;27.79
19676;BME280;39539;52.202;9.876;2022-07-17T10:13:42;101880.69;;;36.36;27.68
19676;BME280;39539;52.202;9.876;2022-07-17T10:16:09;101891.75;;;35.67;27.93
19676;BME280;39539;52.202;9.876;2022-07-17T10:18:42;101901.38;;;36.26;27.97
19676;BME280;39539;52.202;9.876;2022-07-17T10:21:16;101896.78;;;35.78;27.85
19676;BME280;39539;52.202;9.876;2022-07-17T10:23:46;101896.22;;;36.25;28.09
19676;BME280;39539;52.202;9.876;2022-07-17T10:26:12;101906.59;;;37.86;26.56
19676;BME280;39539;52.202;9.876;2022-07-17T10:31:04;101887.38;;;36.35;26.98
19676;BME280;39539;52.202;9.876;2022-07-17T10:33:30;101878.00;;;36.39;27.22
19676;BME280;39539;52.202;9.876;2022-07-17T10:35:55;101883.50;;;35.83;28.48
19676;BME280;39539;52.202;9.876;2022-07-17T10:38:26;101880.88;;;36.43;26.72
19676;BME280;39539;52.202;9.876;2022-07-17T10:41:02;101870.03;;;35.82;27.77
19676;BME280;39539;52.202;9.876;2022-07-17T10:43:42;101886.06;;;34.03;29.41
19676;BME280;39539;52.202;9.876;2022-07-17T10:46:07;101864.06;;;31.80;30.60
19676;BME280;39539;52.202;9.876;2022-07-17T10:48:32;101880.19;;;29.52;34.87
19676;BME280;39539;52.202;9.876;2022-07-17T10:50:59;101890.25;;;29.43;35.32
19676;BME280;39539;52.202;9.876;2022-07-17T10:53:28;101889.72;;;29.41;35.13
19676;BME280;39539;52.202;9.876;2022-07-17T10:55:56;101881.97;;;28.88;36.37
19676;BME280;39539;52.202;9.876;2022-07-17T10:58:28;101884.63;;;28.93;35.17
19676;BME280;39539;52.202;9.876;2022-07-17T11:03:36;101870.78;;;28.00;37.56
19676;BME280;39539;52.202;9.876;2022-07-17T11:08:52;101883.16;;;27.49;37.24
19676;BME280;39539;52.202;9.876;2022-07-17T11:11:21;101883.31;;;27.58;37.64
19676;BME280;39539;52.202;9.876;2022-07-17T11:13:47;101873.53;;;27.04;36.65
19676;BME280;39539;52.202;9.876;2022-07-17T11:16:23;101876.72;;;26.82;35.77
19676;BME280;39539;52.202;9.876;2022-07-17T11:18:50;101881.06;;;26.54;39.94
19676;BME280;39539;52.202;9.876;2022-07-17T11:21:15;101866.84;;;26.86;39.40
19676;BME280;39539;52.202;9.876;2022-07-17T11:23:54;101870.31;;;26.97;38.85
19676;BME280;39539;52.202;9.876;2022-07-17T11:26:20;101870.16;;;26.54;38.31
19676;BME280;39539;52.202;9.876;2022-07-17T11:28:47;101867.25;;;26.74;38.10
19676;BME280;39539;52.202;9.876;2022-07-17T11:33:56;101876.81;;;27.01;37.19
19676;BME280;39539;52.202;9.876;2022-07-17T11:36:33;101863.31;;;26.85;36.60
19676;BME280;39539;52.202;9.876;2022-07-17T11:39:11;101873.84;;;26.68;37.15
19676;BME280;39539;52.202;9.876;2022-07-17T11:41:38;101871.47;;;26.61;36.79
19676;BME280;39539;52.202;9.876;2022-07-17T11:44:05;101864.91;;;26.18;37.41
19676;BME280;39539;52.202;9.876;2022-07-17T11:46:31;101872.06;;;26.09;39.88
19676;BME280;39539;52.202;9.876;2022-07-17T11:48:59;101867.03;;;26.26;40.24
19676;BME280;39539;52.202;9.876;2022-07-17T11:51:57;101868.03;;;26.40;39.01
19676;BME280;39539;52.202;9.876;2022-07-17T11:54:24;101857.31;;;26.15;39.70
19676;BME280;39539;52.202;9.876;2022-07-17T11:56:53;101852.03;;;25.84;41.03
19676;BME280;39539;52.202;9.876;2022-07-17T11:59:30;101854.97;;;25.93;40.00
19676;BME280;39539;52.202;9.876;2022-07-17T12:01:56;101856.41;;;25.80;40.39
19676;BME280;39539;52.202;9.876;2022-07-17T12:04:22;101858.94;;;26.16;40.92
19676;BME280;39539;52.202;9.876;2022-07-17T12:06:59;101843.69;;;26.15;37.22
19676;BME280;39539;52.202;9.876;2022-07-17T12:09:31;101853.91;;;26.33;36.37
19676;BME280;39539;52.202;9.876;2022-07-17T12:12:01;101849.50;;;26.37;36.83
19676;BME280;39539;52.202;9.876;2022-07-17T12:14:26;101844.94;;;26.33;38.75
19676;BME280;39539;52.202;9.876;2022-07-17T12:16:52;101833.84;;;26.19;37.29
19676;BME280;39539;52.202;9.876;2022-07-17T12:19:19;101835.63;;;26.00;39.55
19676;BME280;39539;52.202;9.876;2022-07-17T12:21:58;101842.19;;;25.93;39.88
19676;BME280;39539;52.202;9.876;2022-07-17T12:24:32;101833.13;;;26.03;39.24
19676;BME280;39539;52.202;9.876;2022-07-17T12:27:01;101836.31;;;26.15;37.30
19676;BME280;39539;52.202;9.876;2022-07-17T12:29:28;101819.97;;;25.66;36.58
19676;BME280;39539;52.202;9.876;2022-07-17T12:32:16;101816.44;;;24.75;38.65
19676;BME280;39539;52.202;9.876;2022-07-17T12:34:46;101837.03;;;25.01;39.53
19676;BME280;39539;52.202;9.876;2022-07-17T12:37:13;101816.41;;;24.39;37.41
19676;BME280;39539;52.202;9.876;2022-07-17T12:39:39;101801.75;;;24.30;37.91
19676;BME280;39539;52.202;9.876;2022-07-17T12:42:04;101803.38;;;24.41;39.40
19676;BME280;39539;52.202;9.876;2022-07-17T12:44:30;101825.09;;;24.97;39.55
19676;BME280;39539;52.202;9.876;2022-07-17T12:46:55;101825.00;;;25.33;37.85
19676;BME280;39539;52.202;9.876;2022-07-17T12:49:22;101820.56;;;25.52;36.14
19676;BME280;39539;52.202;9.876;2022-07-17T12:51:50;101810.69;;;25.67;35.04
19676;BME280;39539;52.202;9.876;2022-07-17T12:54:15;101810.63;;;25.82;35.01
19676;BME280;39539;52.202;9.876;2022-07-17T12:56:41;101774.53;;;25.56;33.73
19676;BME280;39539;52.202;9.876;2022-07-17T12:59:06;101796.72;;;25.34;33.48
19676;BME280;39539;52.202;9.876;2022-07-17T13:01:33;101794.47;;;25.46;34.88